Shalersville, Ohio
Current Conditions -  °F | °C
As of 1:54 PM on Sunday 21 Dec 2014 (Local Time) from KAKR Reporting Station
Haze Haze  
Wind Chill: 31°   Ceiling: 2000
Heat Index: 31°   Visibility: 5mi
Dew Point: 22°   Wind: 3mph
Humidity: 69%   Direction: NA
Pressure: 30.25"   Gusts: NA
Location:  41.2966°N, 81.2269°W
Report Text: KAKR 211854Z AUTO VRB03KT 5SM HZ OVC020 M01/M06 A3025 RMK AO2 SLP253 T10061056 $
Loading
Personal Weather Stations






























Interactive Weather Map New forecast layout! Learn more

10-Day Weather Forecast

Advertisements
Track Severe Weather on mobile